Time;durP1;ratioP1;P1;durP2;ratioP2;P2;SDS_P1;SDS_P2;PMS_P1;PMS_P2;Temp;Humidity;BMP_temperature;BMP_pressure;BME280_temperature;BME280_humidity;BME280_pressure;Samples;Min_cycle;Max_cycle;Signal;HPM_P1;HPM_P2
2023/07/21 00:01:03;;;;;;;6.53;5.80;;;;;;;;;;5022266;28;20474;-75
2023/07/21 00:03:30;;;;;;;7.10;6.40;;;;;;;;;;5024167;28;20608;-75
2023/07/21 00:05:56;;;;;;;8.05;7.25;;;;;;;;;;5032490;28;20021;-75
2023/07/21 00:08:24;;;;;;;8.15;7.35;;;;;;;;;;5031031;28;20466;-76
2023/07/21 00:10:50;;;;;;;7.63;6.93;;;;;;;;;;5036207;28;20071;-76
2023/07/21 00:13:15;;;;;;;8.50;7.18;;;;;;;;;;5033642;28;20026;-75
2023/07/21 00:15:41;;;;;;;7.75;6.78;;;;;;;;;;5034256;28;20029;-75
2023/07/21 00:18:07;;;;;;;8.43;6.80;;;;;;;;;;5032526;28;20018;-75
2023/07/21 00:20:32;;;;;;;8.77;7.88;;;;;;;;;;5022265;28;20124;-75
2023/07/21 00:22:58;;;;;;;9.02;7.53;;;;;;;;;;5014620;28;20021;-76
2023/07/21 00:25:24;;;;;;;8.60;7.70;;;;;;;;;;5019535;28;20030;-75
2023/07/21 00:27:49;;;;;;;8.23;7.18;;;;;;;;;;5032338;28;20382;-77
2023/07/21 00:30:15;;;;;;;7.40;6.70;;;;;;;;;;5018505;28;20399;-75
2023/07/21 00:32:41;;;;;;;7.80;7.00;;;;;;;;;;5015869;28;20025;-75
2023/07/21 00:35:08;;;;;;;8.10;7.30;;;;;;;;;;5015722;28;20040;-75
2023/07/21 00:37:37;;;;;;;7.95;6.78;;;;;;;;;;5016041;28;20083;-75
2023/07/21 00:40:10;;;;;;;7.82;7.03;;;;;;;;;;5029625;28;20028;-75
2023/07/21 00:42:36;;;;;;;8.55;7.22;;;;;;;;;;5034014;28;20028;-74
2023/07/21 00:45:03;;;;;;;7.05;6.35;;;;;;;;;;5033688;28;20029;-74
2023/07/21 00:47:29;;;;;;;6.93;6.22;;;;;;;;;;5022028;28;20025;-75
2023/07/21 00:49:56;;;;;;;7.13;6.20;;;;;;;;;;5033330;28;20029;-76
2023/07/21 00:52:23;;;;;;;6.80;6.10;;;;;;;;;;5033417;28;20022;-75
2023/07/21 00:54:48;;;;;;;6.68;5.97;;;;;;;;;;5004625;28;20025;-75
2023/07/21 00:57:15;;;;;;;7.07;6.38;;;;;;;;;;5041507;28;20377;-75
2023/07/21 00:59:41;;;;;;;8.13;6.55;;;;;;;;;;5015599;28;20048;-75
2023/07/21 01:02:06;;;;;;;8.13;6.50;;;;;;;;;;5013077;28;20021;-74
2023/07/21 01:07:09;;;;;;;7.78;7.00;;;;;;;;;;5385240;22;20049;-75
2023/07/21 01:09:36;;;;;;;7.60;6.80;;;;;;;;;;5033993;28;20117;-75
2023/07/21 01:12:03;;;;;;;7.65;6.68;;;;;;;;;;5034268;28;20021;-76
2023/07/21 01:14:29;;;;;;;7.13;6.43;;;;;;;;;;5032821;28;20499;-75
2023/07/21 01:16:56;;;;;;;7.50;6.50;;;;;;;;;;5032849;28;20021;-75
2023/07/21 01:19:22;;;;;;;9.18;6.80;;;;;;;;;;5033966;28;20022;-75
2023/07/21 01:22:00;;;;;;;7.47;6.65;;;;;;;;;;5032671;28;20052;-74
2023/07/21 01:24:37;;;;;;;7.45;6.75;;;;;;;;;;5032599;28;20029;-76
2023/07/21 01:27:05;;;;;;;8.40;6.47;;;;;;;;;;5032564;28;20052;-75
2023/07/21 01:29:34;;;;;;;7.15;6.45;;;;;;;;;;5031657;28;20029;-75
2023/07/21 01:32:02;;;;;;;7.18;6.47;;;;;;;;;;5034018;28;20473;-76
2023/07/21 01:34:30;;;;;;;7.25;6.22;;;;;;;;;;5016027;28;20084;-75
2023/07/21 01:36:56;;;;;;;7.07;6.25;;;;;;;;;;5033918;28;20025;-75
2023/07/21 01:39:22;;;;;;;7.38;6.57;;;;;;;;;;5032362;28;20507;-74
2023/07/21 01:41:47;;;;;;;8.00;6.45;;;;;;;;;;5033562;28;20032;-75
2023/07/21 01:44:13;;;;;;;6.65;5.93;;;;;;;;;;5033773;28;20021;-75
2023/07/21 01:46:38;;;;;;;7.88;7.07;;;;;;;;;;5033514;28;20017;-75
2023/07/21 01:49:03;;;;;;;6.82;6.10;;;;;;;;;;5033425;28;20018;-75
2023/07/21 01:51:31;;;;;;;6.95;6.22;;;;;;;;;;5033445;28;20026;-75
2023/07/21 01:54:00;;;;;;;8.55;6.38;;;;;;;;;;5033689;28;20029;-76
2023/07/21 01:56:41;;;;;;;7.25;6.40;;;;;;;;;;5033456;28;20504;-75
2023/07/21 01:59:10;;;;;;;6.65;6.00;;;;;;;;;;5032077;28;20034;-75
2023/07/21 02:01:37;;;;;;;6.93;6.22;;;;;;;;;;5032131;28;20029;-75
2023/07/21 02:04:03;;;;;;;7.22;6.53;;;;;;;;;;5032478;28;20113;-76
2023/07/21 02:06:29;;;;;;;6.60;6.00;;;;;;;;;;5029754;28;20060;-75
2023/07/21 02:08:54;;;;;;;7.63;6.40;;;;;;;;;;5031638;28;20449;-75
2023/07/21 02:11:20;;;;;;;6.85;6.15;;;;;;;;;;5031021;28;20049;-75
2023/07/21 02:13:46;;;;;;;6.30;5.70;;;;;;;;;;5032272;28;20112;-75
2023/07/21 02:16:11;;;;;;;8.13;5.50;;;;;;;;;;5028221;28;20476;-75
2023/07/21 02:18:41;;;;;;;6.53;5.03;;;;;;;;;;5031072;28;20079;-75
2023/07/21 02:21:06;;;;;;;5.97;5.07;;;;;;;;;;5032278;28;20022;-77
2023/07/21 02:23:31;;;;;;;5.57;4.53;;;;;;;;;;5032171;28;20052;-76
2023/07/21 02:26:00;;;;;;;4.90;4.30;;;;;;;;;;5030997;28;20032;-76
2023/07/21 02:28:26;;;;;;;5.10;4.50;;;;;;;;;;5031789;28;20033;-75
2023/07/21 02:31:03;;;;;;;4.32;3.58;;;;;;;;;;5030807;28;20420;-76
2023/07/21 02:33:29;;;;;;;3.63;3.15;;;;;;;;;;5024702;28;20029;-76
2023/07/21 02:35:55;;;;;;;4.55;3.60;;;;;;;;;;5029134;28;20499;-75
2023/07/21 02:38:21;;;;;;;4.32;3.60;;;;;;;;;;5031926;28;20437;-75
2023/07/21 02:40:47;;;;;;;4.10;3.60;;;;;;;;;;5033987;28;20107;-75
2023/07/21 02:43:12;;;;;;;4.53;3.90;;;;;;;;;;5035910;28;20087;-75
2023/07/21 02:45:38;;;;;;;5.10;4.30;;;;;;;;;;5034791;28;20120;-75
2023/07/21 02:48:07;;;;;;;4.55;4.07;;;;;;;;;;5034400;28;20017;-75
2023/07/21 02:50:33;;;;;;;5.30;4.30;;;;;;;;;;5026641;28;20354;-76
2023/07/21 02:52:58;;;;;;;5.00;4.30;;;;;;;;;;5035647;28;20034;-76
2023/07/21 02:55:24;;;;;;;6.50;4.45;;;;;;;;;;5035675;28;20108;-75
2023/07/21 02:57:49;;;;;;;5.25;4.75;;;;;;;;;;5035554;28;20468;-75
2023/07/21 03:00:15;;;;;;;4.80;4.00;;;;;;;;;;5035866;28;20021;-75
2023/07/21 03:02:42;;;;;;;4.40;3.67;;;;;;;;;;5035299;28;20049;-75
2023/07/21 03:05:08;;;;;;;4.22;3.50;;;;;;;;;;5035387;28;20025;-76
2023/07/21 03:07:34;;;;;;;4.40;3.90;;;;;;;;;;5031207;28;20083;-75
2023/07/21 03:10:00;;;;;;;6.40;4.57;;;;;;;;;;5033922;28;20017;-76
2023/07/21 03:12:25;;;;;;;4.40;3.60;;;;;;;;;;5034112;28;20112;-76
2023/07/21 03:14:51;;;;;;;4.43;3.50;;;;;;;;;;5034104;28;20052;-76
2023/07/21 03:17:16;;;;;;;4.57;3.33;;;;;;;;;;5034068;28;20029;-76
2023/07/21 03:19:41;;;;;;;4.72;3.78;;;;;;;;;;5043861;28;20491;-76
2023/07/21 03:22:07;;;;;;;3.90;3.40;;;;;;;;;;5033840;28;20032;-75
2023/07/21 03:24:34;;;;;;;4.75;3.72;;;;;;;;;;5034120;28;20116;-76
2023/07/21 03:27:00;;;;;;;4.55;3.60;;;;;;;;;;5035133;28;20018;-75
2023/07/21 03:29:25;;;;;;;5.50;4.20;;;;;;;;;;5034952;28;20036;-75
2023/07/21 03:31:50;;;;;;;4.30;3.17;;;;;;;;;;5031378;28;20100;-75
2023/07/21 03:34:16;;;;;;;3.60;2.97;;;;;;;;;;5013907;28;20057;-75
2023/07/21 03:36:41;;;;;;;4.68;2.80;;;;;;;;;;5034299;28;20021;-75
2023/07/21 03:39:07;;;;;;;3.60;3.10;;;;;;;;;;5034936;28;20024;-75
2023/07/21 03:41:32;;;;;;;3.10;2.58;;;;;;;;;;5031452;28;20427;-76
2023/07/21 03:43:58;;;;;;;3.60;2.92;;;;;;;;;;5034718;28;20024;-76
2023/07/21 03:46:24;;;;;;;4.07;3.17;;;;;;;;;;5033626;28;20021;-76
2023/07/21 03:48:50;;;;;;;4.05;3.50;;;;;;;;;;5034614;28;20450;-75
2023/07/21 03:51:15;;;;;;;4.38;2.78;;;;;;;;;;5034016;28;20021;-75
2023/07/21 03:53:41;;;;;;;4.07;3.40;;;;;;;;;;5033494;28;20029;-75
2023/07/21 03:56:06;;;;;;;4.97;3.38;;;;;;;;;;5034578;28;20053;-75
2023/07/21 03:58:32;;;;;;;5.00;3.25;;;;;;;;;;5029672;28;20013;-75
2023/07/21 04:01:01;;;;;;;4.65;3.80;;;;;;;;;;5033271;28;20134;-76
2023/07/21 04:03:26;;;;;;;4.07;3.40;;;;;;;;;;5034203;28;20036;-75
2023/07/21 04:05:52;;;;;;;4.70;3.70;;;;;;;;;;5029559;28;20481;-75
2023/07/21 04:08:18;;;;;;;5.72;3.88;;;;;;;;;;5033738;28;20143;-75
2023/07/21 04:10:44;;;;;;;5.25;3.40;;;;;;;;;;5032971;28;20469;-77
2023/07/21 04:13:09;;;;;;;4.07;3.30;;;;;;;;;;5033239;28;20027;-76
2023/07/21 04:15:35;;;;;;;4.05;3.35;;;;;;;;;;5032650;28;20108;-76
2023/07/21 04:18:01;;;;;;;5.97;3.72;;;;;;;;;;5034314;28;20017;-76
2023/07/21 04:20:28;;;;;;;4.85;3.70;;;;;;;;;;5032992;28;20053;-75
2023/07/21 04:22:54;;;;;;;4.30;3.53;;;;;;;;;;5032858;28;20040;-75
2023/07/21 04:25:19;;;;;;;4.03;3.20;;;;;;;;;;5034070;28;20389;-75
2023/07/21 04:27:50;;;;;;;4.55;4.05;;;;;;;;;;5033004;28;20536;-77
2023/07/21 04:30:16;;;;;;;4.32;3.70;;;;;;;;;;5033823;28;20485;-75
2023/07/21 04:32:41;;;;;;;4.60;3.60;;;;;;;;;;5033183;28;20060;-75
2023/07/21 04:35:08;;;;;;;5.38;3.85;;;;;;;;;;5033981;28;20107;-75
2023/07/21 04:37:34;;;;;;;4.70;3.83;;;;;;;;;;5033922;28;20541;-76
2023/07/21 04:40:00;;;;;;;5.03;3.90;;;;;;;;;;5032447;28;20025;-76
2023/07/21 04:42:26;;;;;;;4.20;3.70;;;;;;;;;;5033898;28;20128;-76
2023/07/21 04:44:52;;;;;;;4.55;3.97;;;;;;;;;;5033528;28;20380;-75
2023/07/21 04:47:17;;;;;;;6.35;4.07;;;;;;;;;;5033572;28;20362;-76
2023/07/21 04:49:43;;;;;;;6.50;4.95;;;;;;;;;;5028546;28;20036;-76
2023/07/21 04:52:09;;;;;;;4.90;4.35;;;;;;;;;;5033580;28;20024;-76
2023/07/21 04:54:36;;;;;;;6.18;4.40;;;;;;;;;;5033577;28;20029;-75
2023/07/21 04:57:02;;;;;;;7.43;4.20;;;;;;;;;;5033502;28;20098;-75
2023/07/21 04:59:27;;;;;;;6.45;4.05;;;;;;;;;;5032184;28;20021;-76
2023/07/21 05:01:53;;;;;;;5.50;4.50;;;;;;;;;;5033383;28;20447;-76
2023/07/21 05:04:20;;;;;;;5.55;4.22;;;;;;;;;;5032864;28;20036;-75
2023/07/21 05:06:47;;;;;;;7.18;5.82;;;;;;;;;;5031431;28;20160;-75
2023/07/21 05:09:13;;;;;;;8.10;5.90;;;;;;;;;;5031913;28;20021;-76
2023/07/21 05:11:39;;;;;;;6.85;6.15;;;;;;;;;;5033159;28;20552;-75
2023/07/21 05:14:04;;;;;;;7.43;6.63;;;;;;;;;;5033027;28;20021;-76
2023/07/21 05:16:31;;;;;;;9.52;6.40;;;;;;;;;;5031923;28;20029;-75
2023/07/21 05:18:57;;;;;;;8.60;6.03;;;;;;;;;;5031846;28;21086;-76
2023/07/21 05:21:22;;;;;;;7.80;6.47;;;;;;;;;;5031763;28;20049;-76
2023/07/21 05:23:48;;;;;;;8.18;6.68;;;;;;;;;;5032441;28;20025;-75
2023/07/21 05:26:13;;;;;;;8.95;6.65;;;;;;;;;;5031636;28;20069;-76
2023/07/21 05:28:38;;;;;;;8.43;7.10;;;;;;;;;;5032804;28;20026;-75
2023/07/21 05:31:04;;;;;;;12.93;7.45;;;;;;;;;;5031484;28;20028;-75
2023/07/21 05:33:29;;;;;;;8.90;7.78;;;;;;;;;;5032626;28;20546;-76
2023/07/21 05:36:07;;;;;;;9.50;7.57;;;;;;;;;;5032586;28;20056;-76
2023/07/21 05:38:33;;;;;;;9.43;7.75;;;;;;;;;;5031691;28;20025;-76
2023/07/21 05:40:58;;;;;;;8.48;7.10;;;;;;;;;;5026548;28;20108;-76
2023/07/21 05:43:24;;;;;;;9.50;7.75;;;;;;;;;;5031566;28;20037;-76
2023/07/21 05:45:50;;;;;;;9.77;7.68;;;;;;;;;;5033292;28;20044;-76
2023/07/21 05:48:15;;;;;;;9.05;8.07;;;;;;;;;;5032608;28;20437;-75
2023/07/21 05:50:41;;;;;;;9.15;7.63;;;;;;;;;;5031273;28;20030;-75
2023/07/21 05:53:06;;;;;;;8.98;7.50;;;;;;;;;;5032641;28;20100;-75
2023/07/21 05:55:31;;;;;;;9.55;7.70;;;;;;;;;;5032379;28;20025;-75
2023/07/21 05:57:57;;;;;;;8.48;6.88;;;;;;;;;;5031584;28;20487;-75
2023/07/21 06:00:22;;;;;;;10.45;6.40;;;;;;;;;;5030927;28;20059;-75
2023/07/21 06:02:47;;;;;;;9.15;6.70;;;;;;;;;;5030980;28;20026;-76
2023/07/21 06:05:13;;;;;;;7.78;6.97;;;;;;;;;;5031775;28;20021;-77
2023/07/21 06:07:40;;;;;;;6.72;5.55;;;;;;;;;;5030992;28;20064;-75
2023/07/21 06:10:06;;;;;;;7.75;6.45;;;;;;;;;;5030175;28;20026;-75
2023/07/21 06:12:31;;;;;;;8.40;5.47;;;;;;;;;;5030881;28;20022;-75
2023/07/21 06:14:56;;;;;;;6.55;5.40;;;;;;;;;;5034003;28;20060;-76
2023/07/21 06:17:22;;;;;;;6.47;5.22;;;;;;;;;;5037802;28;20032;-75
2023/07/21 06:19:47;;;;;;;8.25;5.55;;;;;;;;;;5037607;28;20028;-75
2023/07/21 06:22:13;;;;;;;6.13;4.65;;;;;;;;;;5039023;28;20492;-76
2023/07/21 06:24:39;;;;;;;7.68;5.65;;;;;;;;;;5037389;28;20021;-75
2023/07/21 06:27:05;;;;;;;6.85;5.40;;;;;;;;;;5038807;28;20052;-75
2023/07/21 06:29:31;;;;;;;7.18;6.15;;;;;;;;;;5037258;28;20029;-76
2023/07/21 06:31:56;;;;;;;7.25;5.10;;;;;;;;;;5035668;28;20428;-76
2023/07/21 06:34:22;;;;;;;5.60;4.53;;;;;;;;;;5037327;28;20025;-75
2023/07/21 06:36:47;;;;;;;7.85;5.78;;;;;;;;;;5037844;28;20029;-75
2023/07/21 06:39:13;;;;;;;8.02;5.55;;;;;;;;;;5038400;28;20024;-76
2023/07/21 06:41:38;;;;;;;5.97;4.80;;;;;;;;;;5037705;28;20057;-75
2023/07/21 06:44:04;;;;;;;5.05;4.13;;;;;;;;;;5038491;28;20037;-75
2023/07/21 06:46:29;;;;;;;4.38;3.20;;;;;;;;;;5037385;28;20026;-75
2023/07/21 06:48:55;;;;;;;6.78;5.30;;;;;;;;;;5037087;28;20481;-77
2023/07/21 06:51:20;;;;;;;6.05;5.35;;;;;;;;;;5038415;28;20021;-75
2023/07/21 06:53:47;;;;;;;7.45;5.93;;;;;;;;;;5038636;28;20028;-76
2023/07/21 06:56:13;;;;;;;8.15;5.55;;;;;;;;;;5036982;28;20021;-76
2023/07/21 06:58:39;;;;;;;7.05;5.38;;;;;;;;;;5038558;28;20013;-75
2023/07/21 07:01:04;;;;;;;8.25;5.47;;;;;;;;;;5036501;28;20030;-75
2023/07/21 07:03:30;;;;;;;4.80;3.90;;;;;;;;;;5037046;28;20029;-75
2023/07/21 07:05:55;;;;;;;4.57;3.38;;;;;;;;;;5029394;28;20037;-75
2023/07/21 07:08:21;;;;;;;5.78;4.00;;;;;;;;;;5038285;28;20029;-75
2023/07/21 07:10:49;;;;;;;7.95;6.40;;;;;;;;;;5036881;28;20488;-75
2023/07/21 07:13:15;;;;;;;7.22;5.60;;;;;;;;;;5038507;28;20082;-76
2023/07/21 07:15:40;;;;;;;7.25;6.28;;;;;;;;;;5037067;28;20025;-75
2023/07/21 07:18:05;;;;;;;12.25;6.95;;;;;;;;;;5038400;28;20013;-76
2023/07/21 07:20:31;;;;;;;8.57;6.38;;;;;;;;;;5038172;28;20060;-77
2023/07/21 07:22:56;;;;;;;6.72;5.97;;;;;;;;;;5036784;28;20047;-75
2023/07/21 07:25:24;;;;;;;7.70;6.47;;;;;;;;;;5037373;28;20025;-75
2023/07/21 07:27:51;;;;;;;7.50;6.25;;;;;;;;;;5033240;28;20428;-76
2023/07/21 07:30:16;;;;;;;8.63;6.75;;;;;;;;;;5033557;28;20380;-76
2023/07/21 07:32:43;;;;;;;7.32;6.50;;;;;;;;;;5034975;28;20112;-75
2023/07/21 07:35:10;;;;;;;8.98;6.13;;;;;;;;;;5035088;28;20537;-75
2023/07/21 07:37:35;;;;;;;9.10;6.75;;;;;;;;;;5033604;28;20468;-75
2023/07/21 07:40:01;;;;;;;9.30;6.85;;;;;;;;;;5034361;28;20052;-75
2023/07/21 07:42:26;;;;;;;8.57;7.32;;;;;;;;;;5033689;28;20021;-75
2023/07/21 07:44:58;;;;;;;8.05;6.28;;;;;;;;;;5033719;28;20485;-75
2023/07/21 07:47:24;;;;;;;8.68;7.00;;;;;;;;;;5033439;28;20025;-76
2023/07/21 07:49:49;;;;;;;7.45;6.18;;;;;;;;;;5033603;28;20091;-75
2023/07/21 07:52:17;;;;;;;8.55;7.57;;;;;;;;;;5034991;28;20037;-75
2023/07/21 07:54:43;;;;;;;11.65;8.63;;;;;;;;;;5033504;28;20473;-75
2023/07/21 07:57:08;;;;;;;11.13;9.70;;;;;;;;;;5032932;28;20026;-75
2023/07/21 07:59:34;;;;;;;11.10;9.90;;;;;;;;;;5033291;28;20021;-75
2023/07/21 08:01:59;;;;;;;12.60;8.82;;;;;;;;;;5033166;28;20412;-76
2023/07/21 08:04:25;;;;;;;9.85;8.85;;;;;;;;;;5034502;28;20049;-75
2023/07/21 08:06:50;;;;;;;10.68;8.10;;;;;;;;;;5032873;28;20029;-75
2023/07/21 08:09:16;;;;;;;11.13;8.38;;;;;;;;;;5033034;28;20127;-75
2023/07/21 08:11:41;;;;;;;9.52;8.07;;;;;;;;;;5033071;28;20029;-75
2023/07/21 08:14:07;;;;;;;8.38;7.15;;;;;;;;;;5029785;28;20025;-75
2023/07/21 08:16:33;;;;;;;8.65;7.70;;;;;;;;;;5034226;28;20098;-75
2023/07/21 08:18:59;;;;;;;9.90;8.23;;;;;;;;;;5033238;28;20021;-75
2023/07/21 08:21:27;;;;;;;9.25;7.35;;;;;;;;;;5033987;28;20028;-75
2023/07/21 08:23:52;;;;;;;12.00;7.63;;;;;;;;;;5016894;28;20440;-75
2023/07/21 08:26:18;;;;;;;8.68;7.57;;;;;;;;;;5022126;28;20024;-76
2023/07/21 08:28:44;;;;;;;9.82;7.60;;;;;;;;;;5033750;28;20026;-75
2023/07/21 08:31:09;;;;;;;7.78;6.57;;;;;;;;;;5033439;28;20378;-76
2023/07/21 08:33:38;;;;;;;7.85;6.53;;;;;;;;;;5032695;28;20029;-75
2023/07/21 08:36:05;;;;;;;10.07;6.90;;;;;;;;;;5032643;28;20029;-75
2023/07/21 08:38:33;;;;;;;8.98;7.53;;;;;;;;;;5033443;28;20028;-76
2023/07/21 08:41:07;;;;;;;12.55;7.85;;;;;;;;;;5032601;28;20033;-75
2023/07/21 08:43:32;;;;;;;7.63;6.78;;;;;;;;;;5032463;28;20174;-75
2023/07/21 08:46:03;;;;;;;7.30;5.88;;;;;;;;;;5032445;28;20059;-75
2023/07/21 08:48:30;;;;;;;8.15;6.68;;;;;;;;;;5026813;28;20391;-76
2023/07/21 08:50:56;;;;;;;9.95;6.05;;;;;;;;;;5032134;28;20041;-75
2023/07/21 08:53:26;;;;;;;8.85;6.93;;;;;;;;;;5032523;28;20028;-77
2023/07/21 08:55:56;;;;;;;8.82;6.60;;;;;;;;;;5032067;28;20064;-76
2023/07/21 08:58:23;;;;;;;10.85;6.75;;;;;;;;;;5032356;28;20362;-75
2023/07/21 09:00:49;;;;;;;11.82;6.50;;;;;;;;;;5033589;28;20543;-75
2023/07/21 09:03:45;;;;;;;8.05;6.15;;;;;;;;;;5032604;28;20061;-75
2023/07/21 09:06:13;;;;;;;8.68;5.60;;;;;;;;;;5032286;28;20037;-77
2023/07/21 09:08:38;;;;;;;7.22;5.20;;;;;;;;;;5031862;28;20032;-75
2023/07/21 09:11:04;;;;;;;8.43;5.50;;;;;;;;;;5031794;28;20033;-76
2023/07/21 09:13:31;;;;;;;6.55;5.25;;;;;;;;;;5033093;28;20385;-76
2023/07/21 09:15:59;;;;;;;5.60;5.00;;;;;;;;;;5032037;28;20018;-75
2023/07/21 09:18:30;;;;;;;8.43;5.13;;;;;;;;;;5033156;28;20020;-75
2023/07/21 09:20:56;;;;;;;7.13;5.95;;;;;;;;;;5029294;28;20109;-76
2023/07/21 09:23:23;;;;;;;6.40;5.18;;;;;;;;;;5035893;28;20108;-75
2023/07/21 09:25:53;;;;;;;7.45;4.75;;;;;;;;;;5033016;28;20030;-75
2023/07/21 09:28:20;;;;;;;5.55;4.60;;;;;;;;;;5032770;28;20048;-76
2023/07/21 09:30:51;;;;;;;5.50;4.47;;;;;;;;;;5033056;28;20075;-76
2023/07/21 09:33:22;;;;;;;4.80;3.97;;;;;;;;;;5032486;28;20025;-75
2023/07/21 09:35:49;;;;;;;5.47;4.25;;;;;;;;;;5031533;28;20032;-76
2023/07/21 09:38:14;;;;;;;6.15;3.92;;;;;;;;;;5030761;28;20065;-76
2023/07/21 09:40:43;;;;;;;5.53;4.05;;;;;;;;;;5032601;28;20057;-75
2023/07/21 09:43:13;;;;;;;5.68;3.80;;;;;;;;;;5014958;28;20038;-75
2023/07/21 09:45:41;;;;;;;7.18;3.85;;;;;;;;;;5031402;28;20026;-77
2023/07/21 09:48:07;;;;;;;6.25;4.00;;;;;;;;;;5031169;28;20504;-75
2023/07/21 09:50:34;;;;;;;5.60;3.70;;;;;;;;;;5030750;28;20025;-75
2023/07/21 09:53:03;;;;;;;6.43;3.60;;;;;;;;;;5032488;28;20071;-75
2023/07/21 09:55:36;;;;;;;4.53;3.53;;;;;;;;;;5030938;28;20025;-75
2023/07/21 09:58:05;;;;;;;5.30;3.83;;;;;;;;;;5032485;28;20017;-75
2023/07/21 10:00:33;;;;;;;5.07;3.70;;;;;;;;;;5031099;28;20029;-75
2023/07/21 10:02:59;;;;;;;5.53;4.32;;;;;;;;;;5032412;28;20021;-76
2023/07/21 10:05:24;;;;;;;5.93;4.43;;;;;;;;;;5032312;28;20512;-75
2023/07/21 10:07:50;;;;;;;6.68;4.88;;;;;;;;;;5030857;28;20118;-75
2023/07/21 10:10:19;;;;;;;5.32;4.32;;;;;;;;;;5030848;28;20088;-75
2023/07/21 10:12:50;;;;;;;5.60;4.30;;;;;;;;;;5031890;28;20188;-76
2023/07/21 10:15:21;;;;;;;7.35;5.50;;;;;;;;;;5031068;28;20057;-75
2023/07/21 10:18:07;;;;;;;8.75;5.47;;;;;;;;;;5031038;28;20028;-75
2023/07/21 10:20:49;;;;;;;6.40;4.82;;;;;;;;;;5028175;28;20034;-76
2023/07/21 10:23:17;;;;;;;6.25;4.50;;;;;;;;;;5028435;28;20040;-76
2023/07/21 10:25:58;;;;;;;7.03;4.50;;;;;;;;;;5032300;28;20025;-75
2023/07/21 10:28:30;;;;;;;6.28;4.30;;;;;;;;;;5029377;28;20036;-75
2023/07/21 10:31:25;;;;;;;6.38;3.30;;;;;;;;;;5034035;28;20028;-76
2023/07/21 10:34:09;;;;;;;3.38;2.40;;;;;;;;;;5026323;28;20072;-76
2023/07/21 10:36:52;;;;;;;3.80;2.55;;;;;;;;;;5031059;28;20040;-75
2023/07/21 10:39:24;;;;;;;7.10;3.47;;;;;;;;;;5030810;28;20021;-76
2023/07/21 10:41:51;;;;;;;6.50;3.47;;;;;;;;;;5032208;28;20072;-75
2023/07/21 10:44:18;;;;;;;4.28;2.78;;;;;;;;;;5030561;28;20552;-75
2023/07/21 10:46:48;;;;;;;4.53;2.65;;;;;;;;;;5030407;28;20362;-75
2023/07/21 10:49:15;;;;;;;4.80;2.70;;;;;;;;;;5031552;28;20358;-75
2023/07/21 10:51:45;;;;;;;3.63;2.60;;;;;;;;;;5030951;28;20030;-76
2023/07/21 10:54:11;;;;;;;4.60;2.80;;;;;;;;;;5030528;28;20029;-76
2023/07/21 10:56:43;;;;;;;4.30;2.70;;;;;;;;;;5032183;28;20498;-76
2023/07/21 10:59:10;;;;;;;5.15;3.10;;;;;;;;;;5031727;28;20469;-76
2023/07/21 11:01:50;;;;;;;7.07;2.97;;;;;;;;;;5033233;28;20024;-76
2023/07/21 11:04:17;;;;;;;5.00;3.88;;;;;;;;;;5032886;28;20033;-75
2023/07/21 11:06:45;;;;;;;6.45;4.35;;;;;;;;;;5034114;28;20432;-76
2023/07/21 11:09:11;;;;;;;6.40;4.20;;;;;;;;;;5033420;28;20045;-77
2023/07/21 11:11:45;;;;;;;5.05;3.60;;;;;;;;;;5034327;28;20051;-76
2023/07/21 11:14:11;;;;;;;5.85;3.15;;;;;;;;;;5034069;28;20569;-76
2023/07/21 11:16:54;;;;;;;5.10;3.47;;;;;;;;;;5034597;28;20373;-76
2023/07/21 11:19:21;;;;;;;5.45;3.50;;;;;;;;;;5034462;28;20013;-75
2023/07/21 11:21:47;;;;;;;5.47;3.55;;;;;;;;;;5033015;28;20094;-75
2023/07/21 11:24:23;;;;;;;5.05;3.33;;;;;;;;;;5034067;28;20029;-76
2023/07/21 11:26:48;;;;;;;5.55;3.80;;;;;;;;;;5033970;28;20030;-75
2023/07/21 11:29:18;;;;;;;5.15;4.15;;;;;;;;;;5034990;28;20025;-75
2023/07/21 11:31:44;;;;;;;5.50;4.35;;;;;;;;;;5035139;28;20033;-76
2023/07/21 11:34:20;;;;;;;6.00;4.20;;;;;;;;;;5034811;28;20022;-76
2023/07/21 11:36:49;;;;;;;6.13;3.88;;;;;;;;;;5029647;28;20029;-75
2023/07/21 11:39:20;;;;;;;7.75;3.83;;;;;;;;;;5033547;28;20083;-75
2023/07/21 11:41:57;;;;;;;5.90;4.13;;;;;;;;;;5033665;28;20481;-76
2023/07/21 11:44:27;;;;;;;5.70;4.75;;;;;;;;;;5033578;28;20033;-76
2023/07/21 11:47:07;;;;;;;8.05;4.80;;;;;;;;;;5033464;28;20021;-75
2023/07/21 11:49:37;;;;;;;6.60;4.80;;;;;;;;;;5032072;28;20057;-76
2023/07/21 11:52:03;;;;;;;8.13;4.50;;;;;;;;;;5027468;28;20392;-76
2023/07/21 11:54:35;;;;;;;5.70;4.70;;;;;;;;;;5030497;28;20112;-75
2023/07/21 11:57:02;;;;;;;7.43;5.13;;;;;;;;;;5028413;28;20018;-77
2023/07/21 11:59:28;;;;;;;4.90;3.65;;;;;;;;;;5033391;28;20049;-76
2023/07/21 12:01:55;;;;;;;7.28;4.40;;;;;;;;;;5034515;28;20032;-76
2023/07/21 12:04:22;;;;;;;5.63;4.65;;;;;;;;;;5033027;28;20485;-75
2023/07/21 12:06:48;;;;;;;5.50;4.20;;;;;;;;;;5033000;28;20477;-76
2023/07/21 12:09:13;;;;;;;5.70;4.70;;;;;;;;;;5034410;28;20028;-75
2023/07/21 12:11:39;;;;;;;5.68;4.38;;;;;;;;;;5030920;28;20104;-76
2023/07/21 12:14:05;;;;;;;5.75;4.53;;;;;;;;;;5034025;28;20108;-76
2023/07/21 12:16:32;;;;;;;6.45;5.28;;;;;;;;;;5033027;28;20034;-75
2023/07/21 12:18:57;;;;;;;6.00;4.32;;;;;;;;;;5033076;28;20444;-76
2023/07/21 12:21:26;;;;;;;5.85;4.35;;;;;;;;;;5034264;28;20022;-76
2023/07/21 12:23:52;;;;;;;7.13;6.07;;;;;;;;;;5034130;28;20029;-76
2023/07/21 12:26:18;;;;;;;6.72;4.40;;;;;;;;;;5034154;28;20021;-77
2023/07/21 12:28:45;;;;;;;7.13;5.53;;;;;;;;;;5033111;28;20022;-76
2023/07/21 12:31:11;;;;;;;6.07;5.10;;;;;;;;;;5033642;28;20043;-77
2023/07/21 12:33:39;;;;;;;6.50;5.80;;;;;;;;;;5034039;28;20108;-75
2023/07/21 12:36:05;;;;;;;8.02;6.13;;;;;;;;;;5033961;28;20079;-76
2023/07/21 12:38:31;;;;;;;7.13;6.05;;;;;;;;;;5032502;28;20022;-75
2023/07/21 12:40:56;;;;;;;8.80;6.75;;;;;;;;;;5033672;28;20027;-76
2023/07/21 12:43:21;;;;;;;6.03;4.95;;;;;;;;;;5033806;28;20029;-76
2023/07/21 12:45:47;;;;;;;7.10;5.60;;;;;;;;;;5016533;28;20132;-76
2023/07/21 12:48:12;;;;;;;7.43;4.85;;;;;;;;;;5032595;28;20021;-77
2023/07/21 12:50:38;;;;;;;8.32;6.45;;;;;;;;;;5033433;28;20496;-76
2023/07/21 12:53:03;;;;;;;7.53;6.03;;;;;;;;;;5033806;28;20071;-77
2023/07/21 12:55:28;;;;;;;7.47;5.43;;;;;;;;;;5033388;28;20021;-76
2023/07/21 12:57:54;;;;;;;8.52;6.25;;;;;;;;;;5032265;28;20025;-76
2023/07/21 13:00:19;;;;;;;5.80;4.72;;;;;;;;;;5033296;28;20017;-76
2023/07/21 13:02:44;;;;;;;8.00;6.38;;;;;;;;;;5031636;28;20029;-76
2023/07/21 13:05:13;;;;;;;7.00;5.18;;;;;;;;;;5032683;28;20473;-76
2023/07/21 13:07:41;;;;;;;7.80;5.93;;;;;;;;;;5020085;28;20029;-77
2023/07/21 13:10:07;;;;;;;6.78;5.70;;;;;;;;;;5015752;28;20120;-76
2023/07/21 13:12:34;;;;;;;6.60;5.10;;;;;;;;;;5031803;28;20017;-76
2023/07/21 13:14:59;;;;;;;6.80;5.68;;;;;;;;;;5032031;28;20022;-76
2023/07/21 13:17:26;;;;;;;6.80;5.72;;;;;;;;;;5033153;28;20354;-75
2023/07/21 13:19:51;;;;;;;7.03;5.20;;;;;;;;;;5028364;28;20540;-76
2023/07/21 13:22:16;;;;;;;8.63;3.90;;;;;;;;;;5033485;28;20070;-75
2023/07/21 13:24:42;;;;;;;5.70;2.47;;;;;;;;;;5032026;28;20044;-76
2023/07/21 13:27:07;;;;;;;3.30;2.30;;;;;;;;;;5033065;28;20500;-75
2023/07/21 13:29:34;;;;;;;3.45;2.00;;;;;;;;;;5032552;28;20064;-76
2023/07/21 13:31:59;;;;;;;3.95;1.90;;;;;;;;;;5032935;28;20024;-76
2023/07/21 13:34:25;;;;;;;3.90;1.90;;;;;;;;;;5031488;28;20013;-76
2023/07/21 13:36:51;;;;;;;2.10;1.50;;;;;;;;;;5028180;28;20024;-76
2023/07/21 13:39:16;;;;;;;2.50;1.40;;;;;;;;;;5032608;28;20028;-76
2023/07/21 13:41:42;;;;;;;4.38;1.60;;;;;;;;;;5031449;28;20389;-76
2023/07/21 13:44:07;;;;;;;4.05;2.10;;;;;;;;;;5031270;28;20389;-76
2023/07/21 13:46:33;;;;;;;3.10;1.92;;;;;;;;;;5031532;28;20048;-75
2023/07/21 13:48:58;;;;;;;3.05;2.05;;;;;;;;;;5032653;28;20051;-76
2023/07/21 13:51:24;;;;;;;3.70;2.35;;;;;;;;;;5032415;28;20049;-76
2023/07/21 13:53:49;;;;;;;4.50;2.85;;;;;;;;;;5031918;28;20112;-76
2023/07/21 13:56:15;;;;;;;4.63;2.75;;;;;;;;;;5031202;28;20040;-77
2023/07/21 13:58:42;;;;;;;5.75;3.30;;;;;;;;;;5026691;28;20159;-76
2023/07/21 14:01:07;;;;;;;5.15;3.00;;;;;;;;;;5032445;28;20029;-78
2023/07/21 14:03:33;;;;;;;4.82;3.08;;;;;;;;;;5031147;28;20116;-76
2023/07/21 14:05:58;;;;;;;11.73;3.90;;;;;;;;;;5032423;28;20104;-76
2023/07/21 14:08:24;;;;;;;5.32;3.20;;;;;;;;;;5032363;28;20109;-76
2023/07/21 14:10:50;;;;;;;6.03;3.00;;;;;;;;;;5031707;28;20021;-76
2023/07/21 14:13:15;;;;;;;4.78;2.80;;;;;;;;;;5026595;28;20128;-76
2023/07/21 14:15:41;;;;;;;6.90;3.45;;;;;;;;;;5031020;28;20116;-77
2023/07/21 14:18:06;;;;;;;5.55;3.58;;;;;;;;;;5031148;28;20018;-76
2023/07/21 14:20:32;;;;;;;6.28;3.30;;;;;;;;;;5031958;28;20017;-77
2023/07/21 14:22:58;;;;;;;5.32;3.30;;;;;;;;;;5030949;28;20029;-76
2023/07/21 14:25:23;;;;;;;5.90;3.60;;;;;;;;;;5032437;28;20025;-76
2023/07/21 14:27:49;;;;;;;7.80;3.92;;;;;;;;;;5024569;28;20053;-77
2023/07/21 14:30:15;;;;;;;7.35;3.92;;;;;;;;;;5031734;28;20041;-76
2023/07/21 14:32:41;;;;;;;5.10;3.47;;;;;;;;;;5030948;28;20096;-77
2023/07/21 14:35:09;;;;;;;5.80;3.72;;;;;;;;;;5031233;28;20123;-77
2023/07/21 14:37:34;;;;;;;6.63;3.70;;;;;;;;;;5036241;28;20025;-77
2023/07/21 14:40:01;;;;;;;5.75;3.67;;;;;;;;;;5036062;28;20074;-77
2023/07/21 14:42:26;;;;;;;7.65;4.32;;;;;;;;;;5034846;28;20391;-76
2023/07/21 14:44:52;;;;;;;6.35;4.35;;;;;;;;;;5034910;28;20155;-77